Time;durP1;ratioP1;P1;durP2;ratioP2;P2;SDS_P1;SDS_P2;PMS_P1;PMS_P2;Temp;Humidity;BMP_temperature;BMP_pressure;BME280_temperature;BME280_humidity;BME280_pressure;Samples;Min_cycle;Max_cycle;Signal;HPM_P1;HPM_P2
2021/06/18 00:01:22;;;;;;;;;;;;;;;19.44;64.86;100641.38;5119857;28;966;-44
2021/06/18 00:03:48;;;;;;;;;;;;;;;19.43;64.62;100633.38;5102098;28;1257;-44
2021/06/18 00:06:13;;;;;;;;;;;;;;;19.36;64.62;100642.03;5101046;28;1938;-44
2021/06/18 00:08:39;;;;;;;;;;;;;;;19.33;64.20;100639.88;5120059;28;779;-44
2021/06/18 00:11:05;;;;;;;;;;;;;;;19.48;62.90;100634.13;5119801;28;862;-45
2021/06/18 00:13:30;;;;;;;;;;;;;;;19.34;64.11;100641.50;5100154;28;1095;-46
2021/06/18 00:15:55;;;;;;;;;;;;;;;19.44;63.96;100638.59;5099606;28;1186;-45
2021/06/18 00:18:21;;;;;;;;;;;;;;;19.51;63.75;100648.47;5117365;28;955;-43
2021/06/18 00:20:46;;;;;;;;;;;;;;;19.45;64.04;100639.44;5119690;28;811;-58
2021/06/18 00:23:12;;;;;;;;;;;;;;;19.47;64.06;100639.97;5119784;28;759;-44
2021/06/18 00:25:37;;;;;;;;;;;;;;;19.61;63.35;100640.84;5119254;28;1985;-43
2021/06/18 00:28:03;;;;;;;;;;;;;;;19.37;64.46;100645.63;5119527;28;775;-44
2021/06/18 00:30:28;;;;;;;;;;;;;;;19.40;63.94;100650.53;5119649;28;831;-43
2021/06/18 00:32:54;;;;;;;;;;;;;;;19.46;63.40;100643.81;5118987;28;953;-44
2021/06/18 00:35:19;;;;;;;;;;;;;;;19.32;63.98;100640.97;5119401;28;751;-45
2021/06/18 00:37:45;;;;;;;;;;;;;;;19.32;64.01;100643.72;5119307;28;755;-44
2021/06/18 00:40:10;;;;;;;;;;;;;;;19.36;63.97;100633.75;5118912;28;842;-58
2021/06/18 00:42:36;;;;;;;;;;;;;;;19.39;64.02;100633.19;5119932;28;747;-49
2021/06/18 00:45:01;;;;;;;;;;;;;;;19.45;63.79;100626.47;5119285;28;767;-60
2021/06/18 00:47:27;;;;;;;;;;;;;;;19.32;63.91;100622.50;5118200;28;1970;-44
2021/06/18 00:49:52;;;;;;;;;;;;;;;19.42;62.80;100616.03;5119262;28;763;-44
2021/06/18 00:52:18;;;;;;;;;;;;;;;19.64;63.25;100620.13;5101152;28;824;-45
2021/06/18 00:54:45;;;;;;;;;;;;;;;19.25;63.24;100621.22;5118792;28;966;-44
2021/06/18 00:57:11;;;;;;;;;;;;;;;19.23;61.51;100623.47;5118902;28;763;-44
2021/06/18 00:59:36;;;;;;;;;;;;;;;19.25;61.26;100626.72;5100798;28;929;-60
2021/06/18 01:02:01;;;;;;;;;;;;;;;19.26;62.82;100617.34;5118184;28;950;-44
2021/06/18 01:04:27;;;;;;;;;;;;;;;19.42;63.29;100618.78;5100387;28;1140;-58
2021/06/18 01:06:57;;;;;;;;;;;;;;;19.33;61.93;100634.34;5118492;28;1913;-60
2021/06/18 01:09:22;;;;;;;;;;;;;;;19.15;61.55;100628.53;5100525;28;812;-44
2021/06/18 01:11:55;;;;;;;;;;;;;;;19.37;62.35;100635.41;5118787;28;1039;-46
2021/06/18 01:14:39;;;;;;;;;;;;;;;19.41;63.25;100641.16;5119059;28;798;-46
2021/06/18 01:17:08;;;;;;;;;;;;;;;19.46;64.31;100630.88;5117675;28;1322;-50
2021/06/18 01:19:39;;;;;;;;;;;;;;;19.44;64.03;100626.78;5118971;28;787;-44
2021/06/18 01:22:05;;;;;;;;;;;;;;;19.51;65.11;100623.66;5118461;28;815;-48
2021/06/18 01:24:31;;;;;;;;;;;;;;;19.58;65.46;100615.81;5118110;28;791;-45
2021/06/18 01:27:05;;;;;;;;;;;;;;;19.52;65.18;100622.50;5118269;28;1971;-57
2021/06/18 01:29:44;;;;;;;;;;;;;;;19.56;63.12;100615.28;5118151;28;826;-57
2021/06/18 01:32:12;;;;;;;;;;;;;;;19.01;62.94;100611.03;5117872;28;946;-44
2021/06/18 01:34:38;;;;;;;;;;;;;;;19.11;61.48;100615.59;5100386;28;775;-44
2021/06/18 01:37:13;;;;;;;;;;;;;;;19.31;62.92;100606.25;5118099;28;759;-44
2021/06/18 01:39:39;;;;;;;;;;;;;;;19.41;64.14;100608.88;5099604;28;743;-43
2021/06/18 01:42:05;;;;;;;;;;;;;;;19.46;65.04;100605.22;5099993;28;802;-46
2021/06/18 01:44:30;;;;;;;;;;;;;;;19.59;65.46;100600.91;5118236;28;790;-57
2021/06/18 01:46:56;;;;;;;;;;;;;;;19.65;65.92;100595.00;5098789;28;2099;-56
2021/06/18 01:49:21;;;;;;;;;;;;;;;19.86;64.92;100582.88;5098786;28;1483;-44
2021/06/18 01:51:47;;;;;;;;;;;;;;;19.77;64.59;100594.56;5088481;28;837;-45
2021/06/18 01:54:12;;;;;;;;;;;;;;;19.80;65.17;100596.75;5117906;28;763;-44
2021/06/18 01:56:38;;;;;;;;;;;;;;;19.77;66.69;100594.56;5081924;28;1291;-44
2021/06/18 01:59:04;;;;;;;;;;;;;;;19.93;65.49;100578.59;5099462;28;759;-59
2021/06/18 02:01:36;;;;;;;;;;;;;;;19.91;64.25;100582.78;5098989;28;950;-44
2021/06/18 02:04:05;;;;;;;;;;;;;;;19.94;64.93;100576.69;5099504;28;811;-44
2021/06/18 02:06:31;;;;;;;;;;;;;;;19.96;66.64;100585.47;5117651;28;1947;-45
2021/06/18 02:08:57;;;;;;;;;;;;;;;19.96;66.69;100591.81;5098996;28;780;-44
2021/06/18 02:11:26;;;;;;;;;;;;;;;19.78;65.04;100603.66;5115781;28;1161;-44
2021/06/18 02:13:52;;;;;;;;;;;;;;;19.67;62.57;100614.03;5097305;28;791;-45
2021/06/18 02:16:18;;;;;;;;;;;;;;;19.66;62.48;100620.66;5097869;28;1287;-58
2021/06/18 02:18:43;;;;;;;;;;;;;;;19.80;64.56;100615.25;5117547;28;811;-59
2021/06/18 02:21:08;;;;;;;;;;;;;;;19.81;65.76;100614.94;5117534;28;803;-45
2021/06/18 02:23:34;;;;;;;;;;;;;;;19.91;65.37;100600.19;5099411;28;785;-59
2021/06/18 02:26:00;;;;;;;;;;;;;;;20.01;65.34;100593.69;5117488;28;1984;-45
2021/06/18 02:28:25;;;;;;;;;;;;;;;20.10;65.28;100591.03;5117220;28;755;-44
2021/06/18 02:30:51;;;;;;;;;;;;;;;20.02;66.87;100578.75;5117280;28;746;-43
2021/06/18 02:33:16;;;;;;;;;;;;;;;20.26;66.80;100588.81;5116973;28;957;-43
2021/06/18 02:35:42;;;;;;;;;;;;;;;19.86;64.81;100585.66;5117500;28;766;-58
2021/06/18 02:38:08;;;;;;;;;;;;;;;19.89;65.05;100579.53;5116815;28;814;-43
2021/06/18 02:40:33;;;;;;;;;;;;;;;20.03;65.91;100580.38;5117014;28;771;-44
2021/06/18 02:42:59;;;;;;;;;;;;;;;20.16;66.03;100582.38;5117243;28;775;-43
2021/06/18 02:45:25;;;;;;;;;;;;;;;20.20;64.60;100579.00;5116618;28;882;-44
2021/06/18 02:47:53;;;;;;;;;;;;;;;20.00;62.84;100570.75;5116899;28;1978;-43
2021/06/18 02:50:22;;;;;;;;;;;;;;;20.08;59.75;100571.22;5098801;28;839;-44
2021/06/18 02:52:49;;;;;;;;;;;;;;;20.25;61.71;100567.88;5116687;28;787;-58
2021/06/18 02:55:34;;;;;;;;;;;;;;;20.06;64.15;100563.22;5098799;28;782;-46
2021/06/18 02:58:01;;;;;;;;;;;;;;;20.02;64.28;100562.19;5107699;28;1390;-42
2021/06/18 03:00:27;;;;;;;;;;;;;;;20.22;61.59;100560.22;5120572;28;838;-42
2021/06/18 03:02:54;;;;;;;;;;;;;;;20.07;60.29;100553.81;5103205;28;1134;-43
2021/06/18 03:05:20;;;;;;;;;;;;;;;20.08;62.95;100552.69;5121179;28;775;-43
2021/06/18 03:07:50;;;;;;;;;;;;;;;20.18;63.54;100563.56;5102770;28;1985;-44
2021/06/18 03:10:16;;;;;;;;;;;;;;;20.21;62.36;100558.56;5120974;28;815;-44
2021/06/18 03:12:43;;;;;;;;;;;;;;;20.33;58.49;100562.47;5099296;28;1095;-59
2021/06/18 03:15:08;;;;;;;;;;;;;;;20.27;58.77;100560.09;5098838;28;1175;-50
2021/06/18 03:17:35;;;;;;;;;;;;;;;20.24;61.11;100563.47;5112657;28;1004;-57
2021/06/18 03:20:02;;;;;;;;;;;;;;;20.22;62.07;100560.22;5120860;28;739;-48
2021/06/18 03:22:28;;;;;;;;;;;;;;;20.18;63.62;100560.78;5120545;28;798;-50
2021/06/18 03:24:54;;;;;;;;;;;;;;;20.32;63.16;100554.50;5102558;28;832;-59
2021/06/18 03:27:20;;;;;;;;;;;;;;;20.20;62.09;100556.91;5102899;28;1977;-45
2021/06/18 03:29:46;;;;;;;;;;;;;;;20.10;61.33;100558.72;5101988;28;971;-47
2021/06/18 03:32:11;;;;;;;;;;;;;;;20.35;60.46;100548.34;5120710;28;1005;-45
2021/06/18 03:34:37;;;;;;;;;;;;;;;20.22;62.71;100547.22;5102442;28;807;-46
2021/06/18 03:37:02;;;;;;;;;;;;;;;20.00;62.20;100548.69;5102723;28;810;-60
2021/06/18 03:39:28;;;;;;;;;;;;;;;19.90;63.86;100548.06;5102184;28;935;-60
2021/06/18 03:41:53;;;;;;;;;;;;;;;20.03;63.91;100550.03;5078042;28;1522;-44
2021/06/18 03:44:19;;;;;;;;;;;;;;;20.43;64.31;100547.66;5120866;28;776;-46
2021/06/18 03:46:45;;;;;;;;;;;;;;;20.21;65.27;100551.09;5118850;28;1909;-48
2021/06/18 03:49:10;;;;;;;;;;;;;;;20.24;64.08;100556.00;5082228;28;830;-61
2021/06/18 03:51:36;;;;;;;;;;;;;;;20.21;63.13;100562.13;5099518;28;814;-44
2021/06/18 03:54:01;;;;;;;;;;;;;;;20.52;61.32;100547.75;5099871;28;1406;-62
2021/06/18 03:56:27;;;;;;;;;;;;;;;20.40;60.66;100561.22;5099916;28;758;-59
2021/06/18 03:58:52;;;;;;;;;;;;;;;20.62;59.50;100561.38;5080978;28;841;-61
2021/06/18 04:01:18;;;;;;;;;;;;;;;20.27;61.27;100562.84;5100706;28;990;-59
2021/06/18 04:03:45;;;;;;;;;;;;;;;20.30;63.44;100563.06;5120050;28;851;-60
2021/06/18 04:06:11;;;;;;;;;;;;;;;20.44;63.36;100565.88;5101763;28;1968;-62
2021/06/18 04:08:37;;;;;;;;;;;;;;;20.39;62.22;100571.47;5119765;28;743;-44
2021/06/18 04:11:06;;;;;;;;;;;;;;;20.16;60.61;100564.97;5119819;28;770;-45
2021/06/18 04:13:31;;;;;;;;;;;;;;;20.41;59.15;100569.25;5082053;28;1242;-59
2021/06/18 04:15:56;;;;;;;;;;;;;;;20.38;61.15;100569.03;5099258;28;944;-61
2021/06/18 04:18:23;;;;;;;;;;;;;;;20.28;62.54;100567.25;5095977;28;1006;-51
2021/06/18 04:20:51;;;;;;;;;;;;;;;20.18;61.56;100569.06;5099194;28;866;-47
2021/06/18 04:23:17;;;;;;;;;;;;;;;20.43;57.98;100575.25;5098878;28;722;-63
2021/06/18 04:25:43;;;;;;;;;;;;;;;20.18;57.72;100577.34;5099412;28;2006;-45
2021/06/18 04:28:08;;;;;;;;;;;;;;;20.14;60.68;100570.78;5099245;28;877;-57
2021/06/18 04:30:33;;;;;;;;;;;;;;;20.15;62.29;100575.19;5098436;28;835;-46
2021/06/18 04:32:59;;;;;;;;;;;;;;;19.99;63.44;100571.06;5114607;28;941;-46
2021/06/18 04:35:25;;;;;;;;;;;;;;;20.09;63.43;100565.38;5119171;28;812;-49
2021/06/18 04:37:50;;;;;;;;;;;;;;;20.46;61.62;100574.66;5119239;28;837;-44
2021/06/18 04:40:16;;;;;;;;;;;;;;;19.97;62.22;100573.31;5101188;28;810;-44
2021/06/18 04:42:41;;;;;;;;;;;;;;;20.06;63.29;100571.50;5119090;28;790;-60
2021/06/18 04:45:07;;;;;;;;;;;;;;;20.26;64.49;100564.81;5118673;28;826;-43
2021/06/18 04:47:33;;;;;;;;;;;;;;;20.48;64.13;100572.41;5118742;28;1905;-64
2021/06/18 04:49:58;;;;;;;;;;;;;;;20.58;63.08;100565.03;5119090;28;846;-52
2021/06/18 04:52:24;;;;;;;;;;;;;;;20.63;61.26;100562.19;5100273;28;1256;-64
2021/06/18 04:54:53;;;;;;;;;;;;;;;20.64;60.22;100563.84;5100203;28;1015;-44
2021/06/18 04:57:18;;;;;;;;;;;;;;;20.48;59.89;100564.13;5118871;28;763;-50
2021/06/18 04:59:44;;;;;;;;;;;;;;;20.48;59.33;100564.13;5118745;28;874;-61
2021/06/18 05:02:09;;;;;;;;;;;;;;;20.42;58.65;100568.09;5118520;28;966;-44
2021/06/18 05:04:35;;;;;;;;;;;;;;;20.52;60.11;100572.59;5118701;28;815;-54
2021/06/18 05:07:00;;;;;;;;;;;;;;;20.57;61.92;100568.94;5118438;28;1909;-45
2021/06/18 05:09:26;;;;;;;;;;;;;;;20.39;63.75;100571.47;5118759;28;878;-51
2021/06/18 05:11:51;;;;;;;;;;;;;;;20.58;62.68;100576.09;5118389;28;1075;-62
2021/06/18 05:14:16;;;;;;;;;;;;;;;20.56;61.21;100559.81;5118780;28;751;-50
2021/06/18 05:16:42;;;;;;;;;;;;;;;20.50;59.61;100559.09;5118507;28;1162;-47
2021/06/18 05:19:08;;;;;;;;;;;;;;;20.48;58.39;100561.38;5118505;28;743;-61
2021/06/18 05:21:34;;;;;;;;;;;;;;;20.63;58.13;100564.94;5117362;28;826;-45
2021/06/18 05:23:59;;;;;;;;;;;;;;;20.62;59.46;100564.16;5119054;28;703;-45
2021/06/18 05:26:25;;;;;;;;;;;;;;;20.65;60.77;100568.22;5118428;28;1906;-53
2021/06/18 05:28:50;;;;;;;;;;;;;;;20.57;62.58;100582.75;5118012;28;763;-46
2021/06/18 05:31:15;;;;;;;;;;;;;;;20.56;63.77;100583.88;5117965;28;958;-51
2021/06/18 05:33:41;;;;;;;;;;;;;;;20.59;64.67;100583.25;5118266;28;790;-44
2021/06/18 05:36:06;;;;;;;;;;;;;;;20.71;64.78;100577.28;5117713;28;786;-46
2021/06/18 05:38:32;;;;;;;;;;;;;;;20.89;64.69;100576.34;5118252;28;738;-62
2021/06/18 05:40:57;;;;;;;;;;;;;;;20.41;64.59;100577.53;5118059;28;782;-45
2021/06/18 05:43:23;;;;;;;;;;;;;;;20.49;64.12;100576.78;5117560;28;814;-60
2021/06/18 05:45:48;;;;;;;;;;;;;;;20.95;60.64;100582.59;5118014;28;1922;-59
2021/06/18 05:48:13;;;;;;;;;;;;;;;20.90;59.44;100590.97;5117838;28;958;-44
2021/06/18 05:50:39;;;;;;;;;;;;;;;21.02;58.62;100591.28;5117645;28;512;-56
2021/06/18 05:53:04;;;;;;;;;;;;;;;20.93;59.39;100587.59;5117679;28;743;-49
2021/06/18 05:55:30;;;;;;;;;;;;;;;21.02;61.23;100578.28;5117968;28;755;-44
2021/06/18 05:57:55;;;;;;;;;;;;;;;21.08;62.82;100580.94;5117445;28;794;-46
2021/06/18 06:00:21;;;;;;;;;;;;;;;20.82;64.12;100585.03;5099858;28;1121;-59
2021/06/18 06:02:46;;;;;;;;;;;;;;;20.85;62.68;100581.66;5117319;28;970;-47
2021/06/18 06:05:12;;;;;;;;;;;;;;;20.83;60.65;100575.63;5117143;28;751;-47
2021/06/18 06:07:38;;;;;;;;;;;;;;;20.72;57.99;100568.69;5117467;28;1913;-50
2021/06/18 06:10:04;;;;;;;;;;;;;;;20.92;55.58;100561.91;5117531;28;814;-47
2021/06/18 06:12:29;;;;;;;;;;;;;;;20.88;57.17;100562.84;5106104;28;1103;-46
2021/06/18 06:14:55;;;;;;;;;;;;;;;20.99;58.34;100555.97;5096935;28;755;-49
2021/06/18 06:17:20;;;;;;;;;;;;;;;20.76;60.41;100569.69;5107336;28;1129;-60
2021/06/18 06:19:46;;;;;;;;;;;;;;;20.81;61.33;100569.59;5117124;28;790;-48
2021/06/18 06:22:11;;;;;;;;;;;;;;;20.99;62.13;100555.97;5117125;28;798;-46
2021/06/18 06:24:37;;;;;;;;;;;;;;;20.90;61.98;100561.41;5117301;28;755;-47
2021/06/18 06:27:03;;;;;;;;;;;;;;;21.12;59.35;100555.13;5117562;28;1960;-46
2021/06/18 06:29:28;;;;;;;;;;;;;;;20.97;56.36;100564.56;5117046;28;830;-47
2021/06/18 06:31:53;;;;;;;;;;;;;;;20.79;55.12;100558.03;5117042;28;962;-48
2021/06/18 06:34:19;;;;;;;;;;;;;;;20.54;58.43;100555.72;5116635;28;762;-49
2021/06/18 06:36:44;;;;;;;;;;;;;;;20.80;59.85;100564.38;5117058;28;743;-51
2021/06/18 06:39:10;;;;;;;;;;;;;;;20.51;61.41;100574.56;5117491;28;812;-51
2021/06/18 06:41:35;;;;;;;;;;;;;;;20.46;58.98;100573.84;5117014;28;775;-47
2021/06/18 06:44:01;;;;;;;;;;;;;;;20.37;59.73;100562.69;5117048;28;751;-60
2021/06/18 06:46:26;;;;;;;;;;;;;;;20.22;60.91;100561.00;5116846;28;1975;-50
2021/06/18 06:48:51;;;;;;;;;;;;;;;20.59;61.80;100558.41;5116892;28;881;-60
2021/06/18 06:51:17;;;;;;;;;;;;;;;20.52;62.12;100547.75;5116679;28;750;-60
2021/06/18 06:53:43;;;;;;;;;;;;;;;20.52;60.96;100547.75;5116900;28;858;-52
2021/06/18 06:56:09;;;;;;;;;;;;;;;20.46;59.09;100549.78;5116813;28;739;-48
2021/06/18 06:58:34;;;;;;;;;;;;;;;20.86;56.24;100552.09;5116907;28;767;-49
2021/06/18 07:01:00;;;;;;;;;;;;;;;20.95;54.73;100549.41;5117026;28;755;-47
2021/06/18 07:03:25;;;;;;;;;;;;;;;20.60;54.94;100540.72;5116326;28;1021;-48
2021/06/18 07:05:51;;;;;;;;;;;;;;;20.70;56.88;100548.81;5116332;28;1913;-50
2021/06/18 07:08:17;;;;;;;;;;;;;;;20.62;59.46;100552.25;5116921;28;794;-47
2021/06/18 07:10:43;;;;;;;;;;;;;;;20.82;59.43;100554.66;5116801;28;802;-48
2021/06/18 07:13:08;;;;;;;;;;;;;;;20.62;59.60;100552.25;5116217;28;1130;-47
2021/06/18 07:15:34;;;;;;;;;;;;;;;20.55;58.15;100549.91;5116939;28;756;-46
2021/06/18 07:17:59;;;;;;;;;;;;;;;20.63;56.84;100560.22;5116318;28;1058;-47
2021/06/18 07:20:25;;;;;;;;;;;;;;;20.64;56.45;100556.34;5116321;28;744;-60
2021/06/18 07:22:50;;;;;;;;;;;;;;;20.71;58.79;100555.97;5116744;28;842;-50
2021/06/18 07:25:15;;;;;;;;;;;;;;;20.37;61.56;100551.63;5116264;28;837;-61
2021/06/18 07:27:41;;;;;;;;;;;;;;;20.45;61.46;100547.34;5116325;28;1913;-47
2021/06/18 07:30:07;;;;;;;;;;;;;;;20.80;60.10;100548.63;5116704;28;767;-46
2021/06/18 07:32:32;;;;;;;;;;;;;;;20.64;59.74;100552.78;5116193;28;1025;-62
2021/06/18 07:34:57;;;;;;;;;;;;;;;20.78;58.62;100548.09;5116041;28;863;-59
2021/06/18 07:37:23;;;;;;;;;;;;;;;20.49;58.61;100543.66;5116570;28;877;-49
2021/06/18 07:39:48;;;;;;;;;;;;;;;20.37;58.66;100554.41;5116395;28;803;-60
2021/06/18 07:42:14;;;;;;;;;;;;;;;20.56;59.96;100543.25;5116354;28;755;-48
2021/06/18 07:44:39;;;;;;;;;;;;;;;20.03;63.02;100547.25;5118754;28;786;-44
2021/06/18 07:47:08;;;;;;;;;;;;;;;20.31;63.09;100548.16;5120237;28;1906;-55
2021/06/18 07:49:33;;;;;;;;;;;;;;;20.17;64.08;100539.84;5120216;28;746;-62
2021/06/18 07:51:59;;;;;;;;;;;;;;;20.31;64.84;100542.63;5118977;28;2045;-64
2021/06/18 07:54:26;;;;;;;;;;;;;;;20.37;65.58;100546.13;5120181;28;775;-51
2021/06/18 07:56:52;;;;;;;;;;;;;;;20.48;65.75;100541.19;5120274;28;763;-44
2021/06/18 07:59:17;;;;;;;;;;;;;;;20.59;65.62;100541.81;5120261;28;866;-63
2021/06/18 08:01:42;;;;;;;;;;;;;;;20.68;65.05;100531.75;5098413;28;1165;-63
2021/06/18 08:04:08;;;;;;;;;;;;;;;20.63;65.22;100542.84;5099088;28;823;-63
2021/06/18 08:06:34;;;;;;;;;;;;;;;20.81;64.71;100533.66;5099656;28;1965;-61
2021/06/18 08:08:59;;;;;;;;;;;;;;;20.95;64.29;100539.19;5099648;28;786;-45
2021/06/18 08:11:25;;;;;;;;;;;;;;;21.00;64.37;100543.78;5099382;28;1106;-48
2021/06/18 08:13:50;;;;;;;;;;;;;;;20.93;64.59;100543.38;5099472;28;774;-47
2021/06/18 08:16:16;;;;;;;;;;;;;;;20.90;64.61;100544.84;5100455;28;1145;-56
2021/06/18 08:18:41;;;;;;;;;;;;;;;20.97;64.80;100549.91;5119752;28;751;-44
2021/06/18 08:21:09;;;;;;;;;;;;;;;21.02;64.68;100552.59;5119505;28;834;-56
2021/06/18 08:23:35;;;;;;;;;;;;;;;21.04;64.66;100544.78;5101362;28;1085;-50
2021/06/18 08:26:01;;;;;;;;;;;;;;;21.07;64.45;100541.41;5119091;28;1894;-63
2021/06/18 08:28:27;;;;;;;;;;;;;;;20.93;65.12;100543.38;5119669;28;794;-44
2021/06/18 08:30:52;;;;;;;;;;;;;;;21.09;64.69;100532.81;5119617;28;798;-44
2021/06/18 08:33:18;;;;;;;;;;;;;;;21.09;64.56;100544.69;5118812;28;961;-64
2021/06/18 08:35:43;;;;;;;;;;;;;;;21.18;64.22;100542.84;5118956;28;748;-44
2021/06/18 08:38:09;;;;;;;;;;;;;;;20.94;64.65;100534.75;5119733;28;753;-43
2021/06/18 08:40:34;;;;;;;;;;;;;;;20.47;63.45;100537.63;5118985;28;827;-64
2021/06/18 08:43:00;;;;;;;;;;;;;;;20.13;62.30;100536.06;5119290;28;814;-43
2021/06/18 08:45:26;;;;;;;;;;;;;;;19.71;61.56;100539.75;5118907;28;787;-44
2021/06/18 08:47:51;;;;;;;;;;;;;;;19.78;60.09;100545.72;5118374;28;1913;-64
2021/06/18 08:50:23;;;;;;;;;;;;;;;19.72;59.00;100546.94;5119615;28;893;-58
2021/06/18 08:52:48;;;;;;;;;;;;;;;19.47;58.88;100543.44;5119204;28;779;-43
2021/06/18 08:55:17;;;;;;;;;;;;;;;19.50;59.71;100551.13;5098908;28;886;-44
2021/06/18 08:57:43;;;;;;;;;;;;;;;19.57;60.73;100546.06;5118993;28;755;-47
2021/06/18 09:00:09;;;;;;;;;;;;;;;19.68;62.52;100535.66;5119241;28;823;-43
2021/06/18 09:02:34;;;;;;;;;;;;;;;19.74;64.02;100531.72;5118277;28;1114;-44
2021/06/18 09:05:11;;;;;;;;;;;;;;;19.86;65.06;100524.94;5100480;28;935;-46
2021/06/18 09:07:52;;;;;;;;;;;;;;;20.00;65.57;100525.78;5118744;28;1918;-44
2021/06/18 09:10:36;;;;;;;;;;;;;;;20.11;65.90;100521.72;5118793;28;821;-45
2021/06/18 09:13:17;;;;;;;;;;;;;;;20.20;65.96;100534.81;5118691;28;1110;-65
2021/06/18 09:15:52;;;;;;;;;;;;;;;20.15;66.69;100530.22;5118078;28;1238;-46
2021/06/18 09:18:23;;;;;;;;;;;;;;;20.32;66.25;100527.69;5118562;28;962;-44
2021/06/18 09:20:49;;;;;;;;;;;;;;;20.39;66.46;100520.97;5118698;28;810;-43
2021/06/18 09:23:22;;;;;;;;;;;;;;;20.27;66.92;100518.69;5118360;28;795;-57
2021/06/18 09:25:47;;;;;;;;;;;;;;;20.50;66.33;100512.16;5117874;28;1968;-41
2021/06/18 09:28:13;;;;;;;;;;;;;;;20.42;66.99;100512.06;5092832;28;852;-50
2021/06/18 09:30:38;;;;;;;;;;;;;;;20.52;66.84;100512.69;5097797;28;760;-43
2021/06/18 09:33:07;;;;;;;;;;;;;;;20.72;66.27;100507.06;5113728;28;1009;-44
2021/06/18 09:35:32;;;;;;;;;;;;;;;20.63;66.84;100510.50;5117997;28;794;-64
2021/06/18 09:37:59;;;;;;;;;;;;;;;20.66;66.68;100509.06;5118012;28;783;-49
2021/06/18 09:40:24;;;;;;;;;;;;;;;20.61;67.27;100500.91;5118173;28;802;-45
2021/06/18 09:43:03;;;;;;;;;;;;;;;20.77;66.97;100505.00;5100214;28;771;-57
2021/06/18 09:45:29;;;;;;;;;;;;;;;20.82;66.65;100507.66;5117614;28;811;-64
2021/06/18 09:48:07;;;;;;;;;;;;;;;20.87;66.48;100497.63;5117660;28;1913;-46
2021/06/18 09:50:32;;;;;;;;;;;;;;;20.76;66.03;100495.09;5098886;28;834;-65
2021/06/18 09:53:11;;;;;;;;;;;;;;;20.67;64.52;100494.97;5118153;28;770;-44
2021/06/18 09:55:36;;;;;;;;;;;;;;;20.51;63.60;100488.94;5117281;28;826;-45
2021/06/18 09:58:02;;;;;;;;;;;;;;;20.38;63.10;100491.69;5117721;28;790;-43
2021/06/18 10:00:28;;;;;;;;;;;;;;;20.24;62.94;100491.69;5117808;28;858;-48
2021/06/18 10:02:53;;;;;;;;;;;;;;;20.34;62.00;100491.47;5117257;28;954;-45
2021/06/18 10:05:22;;;;;;;;;;;;;;;20.32;61.19;100482.69;5117393;28;826;-44
2021/06/18 10:07:52;;;;;;;;;;;;;;;20.29;61.05;100488.84;5117173;28;1909;-45
2021/06/18 10:10:21;;;;;;;;;;;;;;;20.05;61.25;100491.75;5117333;28;822;-44
2021/06/18 10:12:46;;;;;;;;;;;;;;;20.17;60.39;100481.88;5104069;28;1086;-46
2021/06/18 10:15:13;;;;;;;;;;;;;;;20.10;60.33;100480.63;5097162;28;790;-46
2021/06/18 10:17:39;;;;;;;;;;;;;;;20.12;60.24;100479.19;5090305;28;1012;-47
2021/06/18 10:20:08;;;;;;;;;;;;;;;20.13;59.96;100474.50;5117464;28;818;-59
2021/06/18 10:22:34;;;;;;;;;;;;;;;20.03;59.96;100475.50;5118079;28;798;-52
2021/06/18 10:25:03;;;;;;;;;;;;;;;20.02;59.85;100473.03;5116871;28;751;-45
2021/06/18 10:27:38;;;;;;;;;;;;;;;19.88;59.99;100471.09;5116991;28;1913;-45
2021/06/18 10:30:23;;;;;;;;;;;;;;;19.89;59.59;100469.94;5117374;28;491;-47
2021/06/18 10:32:48;;;;;;;;;;;;;;;19.89;59.76;100467.19;5116512;28;1013;-60
2021/06/18 10:35:34;;;;;;;;;;;;;;;20.03;59.52;100466.41;5117163;28;791;-46
2021/06/18 10:37:59;;;;;;;;;;;;;;;19.85;59.66;100462.59;5117168;28;1819;-45
2021/06/18 10:40:24;;;;;;;;;;;;;;;19.74;60.18;100457.25;5098391;28;1081;-45
2021/06/18 10:43:06;;;;;;;;;;;;;;;19.96;59.34;100461.28;5098956;28;1261;-46
2021/06/18 10:45:51;;;;;;;;;;;;;;;20.01;58.85;100463.97;5116854;28;874;-50
2021/06/18 10:48:17;;;;;;;;;;;;;;;19.87;59.22;100465.88;5116882;28;958;-45
2021/06/18 10:50:46;;;;;;;;;;;;;;;19.79;59.49;100465.44;5117138;28;755;-45
2021/06/18 10:53:18;;;;;;;;;;;;;;;19.73;59.77;100461.09;5116585;28;767;-67
2021/06/18 10:55:48;;;;;;;;;;;;;;;19.73;60.61;100466.63;5116886;28;866;-48
2021/06/18 10:58:13;;;;;;;;;;;;;;;19.79;62.62;100473.72;5117403;28;776;-46
2021/06/18 11:00:39;;;;;;;;;;;;;;;19.96;63.81;100464.88;5097981;28;863;-60
2021/06/18 11:03:04;;;;;;;;;;;;;;;20.05;64.53;100476.03;5116731;28;973;-45
2021/06/18 11:05:31;;;;;;;;;;;;;;;20.16;65.14;100480.22;5098456;28;1426;-66
2021/06/18 11:08:19;;;;;;;;;;;;;;;20.20;65.40;100483.19;5116567;28;1976;-55
2021/06/18 11:10:45;;;;;;;;;;;;;;;20.23;66.00;100479.84;5106872;28;1310;-45
2021/06/18 11:13:11;;;;;;;;;;;;;;;20.36;65.84;100483.72;5116859;28;1162;-45
2021/06/18 11:15:40;;;;;;;;;;;;;;;20.45;65.82;100481.06;5116308;28;767;-64
2021/06/18 11:18:16;;;;;;;;;;;;;;;20.15;66.93;100484.09;5116411;28;1048;-44
2021/06/18 11:20:41;;;;;;;;;;;;;;;20.32;66.53;100477.97;5120984;28;801;-66
2021/06/18 11:23:17;;;;;;;;;;;;;;;20.36;66.63;100478.19;5120763;28;783;-45
2021/06/18 11:25:53;;;;;;;;;;;;;;;20.45;66.88;100479.09;5120824;28;778;-46
2021/06/18 11:28:22;;;;;;;;;;;;;;;20.50;66.97;100476.25;5119363;28;964;-47
2021/06/18 11:30:53;;;;;;;;;;;;;;;20.57;66.74;100473.06;5120647;28;743;-45
2021/06/18 11:33:38;;;;;;;;;;;;;;;20.56;67.15;100465.09;5120378;28;1012;-45
2021/06/18 11:36:04;;;;;;;;;;;;;;;20.57;67.33;100463.97;5120829;28;762;-45
2021/06/18 11:38:29;;;;;;;;;;;;;;;20.70;66.95;100457.63;5120188;28;751;-67
2021/06/18 11:40:55;;;;;;;;;;;;;;;20.70;67.11;100460.41;5120504;28;794;-66
2021/06/18 11:43:24;;;;;;;;;;;;;;;20.70;67.22;100460.41;5120503;28;778;-44
2021/06/18 11:45:49;;;;;;;;;;;;;;;20.85;66.96;100454.53;5120332;28;825;-44
2021/06/18 11:48:15;;;;;;;;;;;;;;;20.87;67.15;100447.88;5119718;28;1975;-62
2021/06/18 11:50:42;;;;;;;;;;;;;;;20.91;67.00;100459.97;5120614;28;777;-58
2021/06/18 11:53:07;;;;;;;;;;;;;;;20.91;65.41;100455.25;5120060;28;1066;-45
2021/06/18 11:55:33;;;;;;;;;;;;;;;20.48;63.38;100452.81;5120053;28;878;-45
2021/06/18 11:57:58;;;;;;;;;;;;;;;20.22;60.48;100444.25;5120231;28;827;-46
2021/06/18 12:00:31;;;;;;;;;;;;;;;20.06;57.03;100450.03;5119923;28;854;-45
2021/06/18 12:02:58;;;;;;;;;;;;;;;19.55;54.40;100443.47;5118554;28;957;-64
2021/06/18 12:05:28;;;;;;;;;;;;;;;19.54;52.62;100443.78;5119946;28;754;-45
2021/06/18 12:07:53;;;;;;;;;;;;;;;19.55;54.65;100437.16;5119486;28;1913;-64
2021/06/18 12:10:33;;;;;;;;;;;;;;;19.94;57.88;100430.44;5120173;28;970;-44
2021/06/18 12:13:00;;;;;;;;;;;;;;;20.05;60.56;100429.09;5086921;28;1099;-45
2021/06/18 12:15:28;;;;;;;;;;;;;;;20.07;62.62;100431.56;5098881;28;890;-46
2021/06/18 12:17:55;;;;;;;;;;;;;;;20.05;63.79;100434.63;5092084;28;1143;-60
2021/06/18 12:20:21;;;;;;;;;;;;;;;19.98;64.20;100429.50;5099582;28;755;-62
2021/06/18 12:22:46;;;;;;;;;;;;;;;20.00;64.10;100426.44;5098808;28;790;-64
2021/06/18 12:25:12;;;;;;;;;;;;;;;20.04;64.02;100432.19;5099281;28;747;-45
2021/06/18 12:27:38;;;;;;;;;;;;;;;20.05;64.28;100428.28;5099503;28;1909;-44
2021/06/18 12:30:04;;;;;;;;;;;;;;;20.09;65.63;100427.38;5098462;28;1505;-46
2021/06/18 12:32:31;;;;;;;;;;;;;;;20.20;66.08;100427.16;5110546;28;914;-45
2021/06/18 12:34:57;;;;;;;;;;;;;;;20.33;66.87;100415.31;5101249;28;676;-45
2021/06/18 12:37:32;;;;;;;;;;;;;;;20.39;67.04;100418.78;5118893;28;767;-65
2021/06/18 12:40:04;;;;;;;;;;;;;;;20.46;67.01;100419.97;5119370;28;871;-47
2021/06/18 12:42:30;;;;;;;;;;;;;;;20.48;67.18;100425.19;5119501;28;814;-64
2021/06/18 12:45:02;;;;;;;;;;;;;;;20.57;67.14;100412.31;5100710;28;911;-63
2021/06/18 12:47:27;;;;;;;;;;;;;;;20.50;67.32;100415.47;5119063;28;1918;-45
2021/06/18 12:49:53;;;;;;;;;;;;;;;20.48;67.31;100415.00;5100925;28;811;-54
2021/06/18 12:52:18;;;;;;;;;;;;;;;20.69;66.56;100409.03;5100200;28;996;-46